ADDS METAR Data INFO
IDs: Format: Raw Decoded Include TAF

Data at: 0021 UTC 11 Dec 2017

KSIF 110005Z AUTO 00000KT 10SM CLR M02/M05 A3011 RMK AO2 T10171050
KSIF 102345Z AUTO 00000KT 10SM CLR M01/M05 A3012 RMK AO2 T10151050
KSIF 102325Z AUTO 00000KT 10SM CLR M01/M05 A3012 RMK AO2 T10151050
KSIF 102305Z AUTO 00000KT 10SM CLR M01/M05 A3011 RMK AO2 T10111054
KSIF 102245Z AUTO 00000KT 10SM CLR 00/M05 A3012 RMK AO2 T00001055
KSIF 102225Z AUTO 23003KT 10SM CLR 01/M06 A3012 RMK AO2 T00141065
KSIF 102205Z AUTO 22004KT 10SM CLR 02/M06 A3012 RMK AO2 T00171063
KSIF 102145Z AUTO 24003KT 10SM CLR 03/M07 A3012 RMK AO2 T00291069
KSIF 102125Z AUTO 23005KT 10SM CLR 04/M07 A3012 RMK AO2 T00351075
KSIF 102105Z AUTO 23004KT 10SM CLR 04/M07 A3012 RMK AO2 T00381074
KSIF 102045Z AUTO 23008KT 10SM CLR 04/M08 A3012 RMK AO2 T00401079
KSIF 102025Z AUTO 23006KT 210V270 10SM CLR 04/M08 A3012 RMK AO2 T00401077
KSIF 102005Z AUTO 23006KT 10SM CLR 04/M07 A3012 RMK AO2 T00401072
KSIF 101945Z AUTO 23004KT 10SM CLR 04/M07 A3011 RMK AO2 T00381072
KSIF 101925Z AUTO 22007KT 10SM CLR 04/M07 A3012 RMK AO2 T00361069
KSIF 101905Z AUTO 23008KT 10SM CLR 04/M07 A3012 RMK AO2 T00371068
KSIF 101845Z AUTO 25007KT 10SM CLR 04/M07 A3013 RMK AO2 T00351069
KSIF 101825Z AUTO 21007KT 10SM CLR 03/M07 A3014 RMK AO2 T00331072
KSIF 101805Z AUTO 25008KT 230V290 10SM SCT039 03/M07 A3015 RMK AO2 T00321070
KSIF 101745Z AUTO 23006KT 10SM CLR 03/M07 A3016 RMK AO2 T00301071
KSIF 101725Z AUTO 25008KT 10SM SCT040 03/M07 A3017 RMK AO2 T00331070
KSIF 101705Z AUTO 28004KT 10SM CLR 03/M07 A3017 RMK AO2 T00311075
KSIF 101645Z AUTO 26006KT 10SM CLR 03/M07 A3018 RMK AO2 T00301071
KSIF 101625Z AUTO 29003KT 10SM SCT039 03/M07 A3019 RMK AO2 T00271074
KSIF 101605Z AUTO 28007KT 10SM SCT041 02/M08 A3019 RMK AO2 T00241079
KSIF 101545Z AUTO 27008KT 250V330 10SM CLR 02/M07 A3020 RMK AO2 T00221074
KSIF 101525Z AUTO 29006KT 250V310 10SM CLR 02/M07 A3019 RMK AO2 T00211070
KSIF 101505Z AUTO 27005KT 10SM CLR 02/M07 A3019 RMK AO2 T00171066
KSIF 101445Z AUTO 00000KT 10SM SCT044 01/M06 A3019 RMK AO2 T00081060
KSIF 101425Z AUTO 21003KT 10SM SCT044 00/M06 A3019 RMK AO2 T10011060
KSIF 101405Z AUTO 21003KT 10SM SCT044 M01/M06 A3017 RMK AO2 T10101064
KSIF 101345Z AUTO 00000KT 10SM BKN044 M01/M06 A3016 RMK AO2 T10151061
KSIF 101325Z AUTO 25003KT 10SM BKN044 M02/M06 A3015 RMK AO2 T10221058
KSIF 101305Z AUTO 18003KT 10SM SCT044 M02/M07 A3014 RMK AO2 T10251066
KSIF 101245Z AUTO 22003KT 10SM BKN046 M04/M07 A3013 RMK AO2 T10361073
KSIF 101225Z AUTO 28003KT 10SM OVC046 M03/M06 A3011 RMK AO2 T10311065
KSIF 101205Z AUTO 24004KT 10SM BKN046 M03/M06 A3011 RMK AO2 T10281065
KSIF 101145Z AUTO 23004KT 10SM SCT048 M03/M07 A3011 RMK AO2 T10311068
KSIF 101125Z AUTO 25003KT 10SM BKN050 M03/M06 A3010 RMK AO2 T10261063
KSIF 101105Z AUTO 23003KT 10SM BKN050 M02/M06 A3009 RMK AO2 T10201065
KSIF 101045Z AUTO 22005KT 10SM BKN050 M02/M07 A3008 RMK AO2 T10251066
KSIF 101025Z AUTO 27003KT 10SM OVC050 M02/M06 A3007 RMK AO2 T10181063
KSIF 101005Z AUTO 23003KT 10SM OVC055 M02/M06 A3006 RMK AO2 T10191065
KSIF 100945Z AUTO 23003KT 10SM SCT055 M02/M07 A3005 RMK AO2 T10211066
KSIF 100925Z AUTO 26004KT 10SM CLR M03/M07 A3004 RMK AO2 T10351066
KSIF 100905Z AUTO 00000KT 10SM CLR M04/M07 A3003 RMK AO2 T10411069
KSIF 100845Z AUTO 00000KT 10SM CLR M03/M07 A3003 RMK AO2 T10331071
KSIF 100825Z AUTO 00000KT 10SM CLR M03/M07 A3002 RMK AO2 T10281067
KSIF 100805Z AUTO 00000KT 10SM CLR M01/M07 A3002 RMK AO2 T10151066
KSIF 100745Z AUTO 25003KT 10SM CLR M02/M06 A3001 RMK AO2 T10231061
KSIF 100725Z AUTO 25003KT 10SM CLR M02/M06 A3001 RMK AO2 T10171062
KSIF 100705Z AUTO 24003KT 10SM CLR M02/M06 A3000 RMK AO2 T10211060
KSIF 100645Z AUTO 26003KT 10SM CLR M01/M06 A2999 RMK AO2 T10151056
KSIF 100625Z AUTO 27003KT 10SM CLR M01/M05 A2998 RMK AO2 T10121052
KSIF 100605Z AUTO 00000KT 10SM CLR M01/M05 A2997 RMK AO2 T10111052
KSIF 100545Z AUTO 28005KT 10SM SCT046 SCT065 M01/M04 A2997 RMK AO2 T10061045
KSIF 100525Z AUTO 00000KT 10SM SCT046 SCT065 M01/M04 A2996 RMK AO2 T10071037
KSIF 100505Z AUTO 24005KT 10SM CLR 00/M04 A2995 RMK AO2 T10051037
KSIF 100445Z AUTO 26003KT 10SM CLR 00/M03 A2994 RMK AO2 T10051035
KSIF 100425Z AUTO 27003KT 10SM CLR 00/M03 A2994 RMK AO2 T10031030
KSIF 100405Z AUTO 23003KT 10SM CLR 00/M03 A2993 RMK AO2 T10011030
KSIF 100345Z AUTO 27003KT 10SM CLR 00/M02 A2992 RMK AO2 T00001022
KSIF 100325Z AUTO 00000KT 7SM BKN110 00/M02 A2991 RMK AO2 T00001020
KSIF 100305Z AUTO 25005KT 7SM OVC110 00/M02 A2990 RMK AO2 T00001016
KSIF 100245Z AUTO 23005KT 7SM BKN110 00/M02 A2989 RMK AO2 T00001017
KSIF 100225Z AUTO 23004KT 7SM SCT008 SCT080 OVC110 00/M02 A2989 RMK AO2 T00001016
KSIF 100205Z AUTO 23004KT 7SM OVC110 00/M02 A2988 RMK AO2 T00011016
KSIF 100145Z AUTO 24003KT 7SM OVC100 00/M01 A2988 RMK AO2 T00031015
KSIF 100125Z AUTO 23005KT 10SM OVC090 01/M01 A2988 RMK AO2 T00051015
KSIF 100105Z AUTO 22005KT 10SM SCT013 OVC100 01/M01 A2988 RMK AO2 T00051015
KSIF 100045Z AUTO 22003KT 10SM SCT020 OVC100 01/M01 A2988 RMK AO2 T00051015
KSIF 100025Z AUTO 00000KT 10SM OVC018 01/M01 A2987 RMK AO2 T00051015
KSIF 100005Z AUTO 23003KT 10SM OVC014 01/M01 A2987 RMK AO2 T00051015
KSIF 092345Z AUTO 24003KT 10SM SCT008 OVC014 01/M01 A2987 RMK AO2 T00051014
KSIF 092325Z AUTO 24006KT 10SM OVC008 00/M01 A2986 RMK AO2 T00031015
KSIF 092305Z AUTO 24007KT 10SM OVC006 00/M01 A2984 RMK AO2 T00031012
KSIF 092245Z AUTO 24003KT 7SM OVC006 00/M01 A2983 RMK AO2 T00021012
KSIF 092225Z AUTO 00000KT 7SM OVC006 01/M01 A2983 RMK AO2 T00051012
KSIF 092205Z AUTO 00000KT 7SM OVC008 01/M01 A2983 RMK AO2 T00051011
KSIF 092145Z AUTO 21003KT 7SM SCT004 OVC010 01/M01 A2982 RMK AO2 T00051012
KSIF 092125Z AUTO 22005KT 5SM BR BKN004 BKN012 OVC075 00/M01 A2982 RMK AO2 T00041012
KSIF 092105Z AUTO 20003KT 5SM BR SCT004 BKN046 OVC075 01/M01 A2982 RMK AO2 T00051010
KSIF 092045Z AUTO 22003KT 4SM BR BKN004 OVC048 00/M01 A2983 RMK AO2 T00041011
KSIF 092025Z AUTO 21003KT 3SM -SN BKN004 BKN008 OVC041 01/M01 A2982 RMK AO2 T00051012
KSIF 092005Z AUTO 00000KT 2 1/2SM -SN SCT004 BKN031 OVC039 00/M01 A2982 RMK AO2 T00041012
KSIF 091945Z AUTO 00000KT 2 1/2SM -SN SCT004 BKN008 OVC014 01/M01 A2983 RMK AO2 T00051013
KSIF 091925Z AUTO 00000KT 2 1/2SM -SN SCT004 BKN010 OVC015 01/M01 A2982 RMK AO2 VIS 1 3/4V4 T00051012
KSIF 091905Z AUTO 00000KT 1 3/4SM -SN BKN006 OVC015 00/M01 A2981 RMK AO2 T00031015
KSIF 091845Z AUTO 00000KT 1 1/2SM -SN BKN004 BKN009 OVC014 00/M02 A2981 RMK AO2 T00021016
KSIF 091825Z AUTO 00000KT 2 1/2SM -SN SCT004 BKN016 OVC028 00/M01 A2981 RMK AO2 T00041014
KSIF 091805Z AUTO 00000KT 2SM -SN BKN004 BKN008 OVC024 00/M01 A2981 RMK AO2 T00021015
KSIF 091745Z AUTO 00000KT 1 3/4SM -SN BKN006 OVC011 00/M01 A2981 RMK AO2 T00021015
KSIF 091725Z AUTO 00000KT 1 1/2SM -SN BKN006 OVC011 00/M01 A2983 RMK AO2 T00021015
KSIF 091705Z AUTO 00000KT 2SM -SN OVC006 00/M01 A2983 RMK AO2 T00021015
KSIF 091645Z AUTO 00000KT 1 3/4SM -SN OVC006 00/M01 A2984 RMK AO2 T00011015
KSIF 091625Z AUTO 00000KT 1 3/4SM -SN OVC006 00/M01 A2986 RMK AO2 T00001015
KSIF 091605Z AUTO 00000KT 1 1/4SM -SN BKN004 OVC008 00/M01 A2987 RMK AO2 T00001015
KSIF 091545Z AUTO 00000KT 1 1/2SM -SN SCT004 BKN010 OVC014 00/M01 A2988 RMK AO2 T00001015